River Plate Estuary, Argentina
Current Conditions -  °F | °C
As of 7:00 PM on Monday 22 Dec 2014 (Local Time) from SUMU Reporting Station
Clear Clear  
Wind Chill: 66°   Ceiling: Unl
Heat Index: 66°   Visibility: 6mi
Dew Point: 43°   Wind: 10mph
Humidity: 43%   Direction: 250°WSW
Pressure: 30.09"   Gusts: NA
Location:  35°S, 57°W
Report Text: SUMU 222200Z 25009KT CAVOK 19/06 Q1019 NOSIG
Loading
Personal Weather Stations






























Interactive Weather Map New forecast layout! Learn more

10-Day Weather Forecast

Advertisements
Track Severe Weather on mobile